createdAt,value
2019-04-04T00:00:23.557Z,42.90
2019-04-04T00:02:54.212Z,44.13
2019-04-04T00:05:26.204Z,47.35
2019-04-04T00:07:58.113Z,47.27
2019-04-04T00:10:29.341Z,46.90
2019-04-04T00:13:00.181Z,47.10
2019-04-04T00:15:30.765Z,40.50
2019-04-04T00:18:01.317Z,37.00
2019-04-04T00:20:32.403Z,33.42
2019-04-04T00:23:02.898Z,32.90
2019-04-04T00:25:33.459Z,33.08
2019-04-04T00:28:03.967Z,32.27
2019-04-04T00:30:34.808Z,31.48
2019-04-04T00:33:05.342Z,32.05
2019-04-04T00:35:35.919Z,31.20
2019-04-04T00:38:07.072Z,30.23
2019-04-04T00:40:38.144Z,30.25
2019-04-04T00:43:08.671Z,28.25
2019-04-04T00:45:39.180Z,29.35
2019-04-04T00:48:09.669Z,27.50
2019-04-04T00:50:40.253Z,27.77
2019-04-04T00:53:11.805Z,27.30
2019-04-04T00:55:42.918Z,27.77
2019-04-04T00:58:13.400Z,29.00
2019-04-04T01:00:44.003Z,28.50
2019-04-04T01:03:14.511Z,28.12
2019-04-04T01:05:45.055Z,28.67
2019-04-04T01:08:15.613Z,27.48
2019-04-04T01:10:46.294Z,27.20
2019-04-04T01:13:18.613Z,26.23
2019-04-04T01:15:49.137Z,26.70
2019-04-04T01:18:19.677Z,24.75
2019-04-04T01:20:50.641Z,25.37
2019-04-04T01:23:22.069Z,24.10
2019-04-04T01:25:52.565Z,24.57
2019-04-04T01:28:23.128Z,24.80
2019-04-04T01:30:53.646Z,24.60
2019-04-04T01:33:24.146Z,24.47
2019-04-04T01:35:54.941Z,24.30
2019-04-04T01:38:27.088Z,24.87
2019-04-04T01:40:57.699Z,24.00
2019-04-04T01:43:28.202Z,23.60
2019-04-04T01:45:58.774Z,23.90
2019-04-04T01:48:29.294Z,23.33
2019-04-04T01:50:59.895Z,21.97
2019-04-04T01:53:30.891Z,21.27
2019-04-04T01:56:01.478Z,22.70
2019-04-04T01:58:32.055Z,22.07
2019-04-04T02:01:02.733Z,20.80
2019-04-04T02:03:33.349Z,20.65
2019-04-04T02:06:03.935Z,22.67
2019-04-04T02:08:34.508Z,20.45
2019-04-04T02:11:05.931Z,21.42
2019-04-04T02:13:36.656Z,23.18
2019-04-04T02:16:07.601Z,21.68
2019-04-04T02:18:38.077Z,21.90
2019-04-04T02:21:08.595Z,21.95
2019-04-04T02:23:39.011Z,22.10
2019-04-04T02:26:09.534Z,22.70
2019-04-04T02:28:40.685Z,22.42
2019-04-04T02:31:11.653Z,21.77
2019-04-04T02:33:42.176Z,21.70
2019-04-04T02:36:16.392Z,21.97
2019-04-04T02:39:03.204Z,21.65
2019-04-04T02:41:33.766Z,22.98
2019-04-04T02:44:04.475Z,21.60
2019-04-04T02:46:34.947Z,21.45
2019-04-04T02:49:05.467Z,21.15
2019-04-04T02:51:40.209Z,21.80
2019-04-04T02:54:08.191Z,21.75
2019-04-04T02:56:38.721Z,22.32
2019-04-04T02:59:09.172Z,22.03
2019-04-04T03:01:39.723Z,22.65
2019-04-04T03:04:13.510Z,22.60
2019-04-04T03:06:42.524Z,23.05
2019-04-04T03:09:13.029Z,21.02
2019-04-04T03:11:43.983Z,21.23
2019-04-04T03:14:14.734Z,21.13
2019-04-04T03:16:45.365Z,22.15
2019-04-04T03:19:16.161Z,21.15
2019-04-04T03:21:46.670Z,21.50
2019-04-04T03:24:17.176Z,21.90
2019-04-04T03:26:52.300Z,19.73
2019-04-04T03:29:19.971Z,16.27
2019-04-04T03:31:50.536Z,18.35
2019-04-04T03:34:21.057Z,17.25
2019-04-04T03:36:51.519Z,16.40
2019-04-04T03:39:22.035Z,16.20
2019-04-04T03:41:52.514Z,19.98
2019-04-04T03:44:23.041Z,21.70
2019-04-04T03:46:53.727Z,22.30
2019-04-04T03:49:24.768Z,24.10
2019-04-04T03:51:55.346Z,24.63
2019-04-04T03:54:28.211Z,23.43
2019-04-04T03:56:58.709Z,23.20
2019-04-04T03:59:29.605Z,23.85
2019-04-04T04:02:01.364Z,25.20
2019-04-04T04:04:32.072Z,23.77
2019-04-04T04:07:02.546Z,23.60
2019-04-04T04:09:33.052Z,24.50
2019-04-04T04:12:03.568Z,24.45
2019-04-04T04:14:34.020Z,24.87
2019-04-04T04:17:04.503Z,24.02
2019-04-04T04:19:35.037Z,25.40
2019-04-04T04:22:05.472Z,24.82
2019-04-04T04:24:35.943Z,25.00
2019-04-04T04:27:06.441Z,25.02
2019-04-04T04:29:36.908Z,22.30
2019-04-04T04:32:07.372Z,22.62
2019-04-04T04:34:37.908Z,23.45
2019-04-04T04:37:08.395Z,24.30
2019-04-04T04:39:41.402Z,24.12
2019-04-04T04:42:11.172Z,25.12
2019-04-04T04:44:41.627Z,22.70
2019-04-04T04:47:12.026Z,20.55
2019-04-04T04:49:42.571Z,24.20
2019-04-04T04:52:15.086Z,24.55
2019-04-04T04:54:45.214Z,25.15
2019-04-04T04:57:28.841Z,24.60
2019-04-04T04:59:47.945Z,24.57
2019-04-04T05:02:22.135Z,25.20
2019-04-04T05:04:50.662Z,25.12
2019-04-04T05:07:21.245Z,25.45
2019-04-04T05:09:51.666Z,26.20
2019-04-04T05:12:22.289Z,25.95
2019-04-04T05:14:52.681Z,25.08
2019-04-04T05:17:23.164Z,24.18
2019-04-04T05:19:53.658Z,24.57
2019-04-04T05:22:24.139Z,25.17
2019-04-04T05:25:07.425Z,24.05
2019-04-04T05:27:26.875Z,25.47
2019-04-04T05:29:57.279Z,25.00
2019-04-04T05:32:27.794Z,25.62
2019-04-04T05:35:00.874Z,25.25
2019-04-04T05:37:30.513Z,25.50
2019-04-04T05:40:01.006Z,25.88
2019-04-04T05:42:33.008Z,25.62
2019-04-04T05:45:03.864Z,25.45
2019-04-04T05:47:34.394Z,25.43
2019-04-04T05:50:05.817Z,25.80
2019-04-04T05:52:36.268Z,23.25
2019-04-04T05:55:09.959Z,24.70
2019-04-04T05:57:39.701Z,24.10
2019-04-04T06:00:13.556Z,23.02
2019-04-04T06:02:44.126Z,24.02
2019-04-04T06:05:14.828Z,24.10
2019-04-04T06:07:45.296Z,23.95
2019-04-04T06:10:18.102Z,25.85
2019-04-04T06:12:48.041Z,24.80
2019-04-04T06:15:18.592Z,23.55
2019-04-04T06:17:49.120Z,23.80
2019-04-04T06:20:19.601Z,23.67
2019-04-04T06:22:51.992Z,25.27
2019-04-04T06:25:22.391Z,23.52
2019-04-04T06:27:52.883Z,23.18
2019-04-04T06:30:23.338Z,23.42
2019-04-04T06:32:53.841Z,23.10
2019-04-04T06:35:24.255Z,22.42
2019-04-04T06:37:54.773Z,23.00
2019-04-04T06:40:25.298Z,22.50
2019-04-04T06:42:55.753Z,21.57
2019-04-04T06:45:26.262Z,21.82
2019-04-04T06:47:57.513Z,21.42
2019-04-04T06:50:28.621Z,21.60
2019-04-04T06:52:59.063Z,20.30
2019-04-04T06:55:29.607Z,19.48
2019-04-04T06:58:00.019Z,19.48
2019-04-04T07:00:30.479Z,19.60
2019-04-04T07:03:00.927Z,19.07
2019-04-04T07:05:31.365Z,20.12
2019-04-04T07:08:02.552Z,19.92
2019-04-04T07:10:33.024Z,18.32
2019-04-04T07:13:14.820Z,18.20
2019-04-04T07:15:46.194Z,18.00
2019-04-04T07:18:07.946Z,16.80
2019-04-04T07:20:38.407Z,17.32
2019-04-04T07:23:08.951Z,17.00
2019-04-04T07:25:39.808Z,17.15
2019-04-04T07:28:10.711Z,15.88
2019-04-04T07:30:41.270Z,16.97
2019-04-04T07:33:12.708Z,16.82
2019-04-04T07:35:43.385Z,18.50
2019-04-04T07:38:13.882Z,16.70
2019-04-04T07:40:44.383Z,16.37
2019-04-04T07:43:14.879Z,15.43
2019-04-04T07:45:45.392Z,16.62
2019-04-04T07:48:17.846Z,14.70
2019-04-04T07:50:48.032Z,14.53
2019-04-04T07:53:18.497Z,15.80
2019-04-04T07:55:48.995Z,14.35
2019-04-04T07:58:19.496Z,13.32
2019-04-04T08:00:49.944Z,12.33
2019-04-04T08:03:20.447Z,12.30
2019-04-04T08:05:50.965Z,12.75
2019-04-04T08:08:21.430Z,10.53
2019-04-04T08:10:52.005Z,12.23
2019-04-04T08:13:22.477Z,11.60
2019-04-04T08:15:52.916Z,11.35
2019-04-04T08:18:23.423Z,11.08
2019-04-04T08:20:53.871Z,8.25
2019-04-04T08:23:24.337Z,9.18
2019-04-04T08:25:54.834Z,8.95
2019-04-04T08:28:25.279Z,9.18
2019-04-04T08:30:55.805Z,9.25
2019-04-04T08:33:26.272Z,10.00
2019-04-04T08:36:05.808Z,9.80
2019-04-04T08:38:29.016Z,9.35
2019-04-04T08:40:59.520Z,9.33
2019-04-04T08:43:30.009Z,11.38
2019-04-04T08:46:00.537Z,11.10
2019-04-04T08:48:31.069Z,11.40
2019-04-04T08:51:01.583Z,12.13
2019-04-04T08:53:39.771Z,10.77
2019-04-04T08:56:04.236Z,11.90
2019-04-04T08:58:34.731Z,11.30
2019-04-04T09:01:05.509Z,12.70
2019-04-04T09:03:36.013Z,11.48
2019-04-04T09:06:06.482Z,12.20
2019-04-04T09:08:36.948Z,12.23
2019-04-04T09:11:07.537Z,12.90
2019-04-04T09:13:38.132Z,11.97
2019-04-04T09:16:08.676Z,10.82
2019-04-04T09:18:58.288Z,11.07
2019-04-04T09:21:28.922Z,10.25
2019-04-04T09:24:00.826Z,10.63
2019-04-04T09:26:31.575Z,10.20
2019-04-04T09:29:02.048Z,9.85
2019-04-04T09:31:32.560Z,9.88
2019-04-04T09:34:03.052Z,9.67
2019-04-04T09:36:33.569Z,9.60
2019-04-04T09:39:06.523Z,9.10
2019-04-04T09:41:37.017Z,10.20
2019-04-04T09:44:07.495Z,9.47
2019-04-04T09:46:37.873Z,9.20
2019-04-04T09:49:08.401Z,9.15
2019-04-04T09:51:38.854Z,10.55
2019-04-04T09:54:09.310Z,9.25
2019-04-04T09:56:39.848Z,10.85
2019-04-04T09:59:10.334Z,10.80
2019-04-04T10:01:40.818Z,11.00
2019-04-04T10:04:11.319Z,10.65
2019-04-04T10:06:41.785Z,10.93
2019-04-04T10:09:15.964Z,9.98
2019-04-04T10:11:44.573Z,10.70
2019-04-04T10:14:15.164Z,11.78
2019-04-04T10:16:45.690Z,12.05
2019-04-04T10:19:16.190Z,11.45
2019-04-04T10:21:46.664Z,11.75
2019-04-04T10:24:17.135Z,11.50
2019-04-04T10:26:47.690Z,11.93
2019-04-04T10:29:18.136Z,10.63
2019-04-04T10:31:48.655Z,10.38
2019-04-04T10:34:19.089Z,10.68
2019-04-04T10:36:49.575Z,10.60
2019-04-04T10:39:28.773Z,10.53
2019-04-04T10:41:52.330Z,10.15
2019-04-04T10:44:22.821Z,10.43
2019-04-04T10:46:53.265Z,9.95
2019-04-04T10:49:23.777Z,11.03
2019-04-04T10:51:54.278Z,9.78
2019-04-04T10:54:24.744Z,10.28
2019-04-04T10:56:55.236Z,10.68
2019-04-04T10:59:25.768Z,10.05
2019-04-04T11:01:57.449Z,9.88
2019-04-04T11:04:28.554Z,9.33
2019-04-04T11:06:59.124Z,10.68
2019-04-04T11:09:41.280Z,9.63
2019-04-04T11:12:01.922Z,8.73
2019-04-04T11:14:32.372Z,9.80
2019-04-04T11:17:02.890Z,8.93
2019-04-04T11:19:33.398Z,9.78
2019-04-04T11:22:03.900Z,10.40
2019-04-04T11:24:34.354Z,10.20
2019-04-04T11:27:04.957Z,9.63
2019-04-04T11:29:35.465Z,9.23
2019-04-04T11:32:05.942Z,9.80
2019-04-04T11:34:36.471Z,10.50
2019-04-04T11:37:07.016Z,10.00
2019-04-04T11:39:37.512Z,10.50
2019-04-04T11:42:08.046Z,10.40
2019-04-04T11:44:38.517Z,9.60
2019-04-04T11:47:08.980Z,9.00
2019-04-04T11:49:39.421Z,9.20
2019-04-04T11:52:09.950Z,10.15
2019-04-04T11:54:59.370Z,9.30
2019-04-04T11:57:29.828Z,9.53
2019-04-04T12:00:00.451Z,10.18
2019-04-04T12:02:32.680Z,11.05
2019-04-04T12:05:03.645Z,10.10
2019-04-04T12:07:34.252Z,10.03
2019-04-04T12:10:07.719Z,9.80
2019-04-04T12:12:37.660Z,9.65
2019-04-04T12:15:08.807Z,9.50
2019-04-04T12:17:39.346Z,10.68
2019-04-04T12:20:10.247Z,9.75
2019-04-04T12:22:40.783Z,11.38
2019-04-04T12:25:11.346Z,10.73
2019-04-04T12:27:41.886Z,12.47
2019-04-04T12:30:12.840Z,12.43
2019-04-04T12:32:43.424Z,10.98
2019-04-04T12:35:14.023Z,10.57
2019-04-04T12:37:44.564Z,10.75
2019-04-04T12:40:20.781Z,11.75
2019-04-04T12:42:47.988Z,12.13
2019-04-04T12:45:18.689Z,11.83
2019-04-04T12:47:49.295Z,12.55
2019-04-04T12:50:19.860Z,11.73
2019-04-04T12:52:50.401Z,12.23
2019-04-04T12:55:20.954Z,12.40
2019-04-04T12:57:51.481Z,12.83
2019-04-04T13:00:22.045Z,11.08
2019-04-04T13:02:52.624Z,12.25
2019-04-04T13:05:23.127Z,11.83
2019-04-04T13:07:53.583Z,12.00
2019-04-04T13:10:32.941Z,12.50
2019-04-04T13:12:56.297Z,11.20
2019-04-04T13:15:26.833Z,11.73
2019-04-04T13:17:57.381Z,12.37
2019-04-04T13:20:27.970Z,12.63
2019-04-04T13:22:58.492Z,11.65
2019-04-04T13:25:28.943Z,12.55
2019-04-04T13:27:59.447Z,10.93
2019-04-04T13:30:29.914Z,13.93
2019-04-04T13:33:00.393Z,13.68
2019-04-04T13:35:30.873Z,12.70
2019-04-04T13:38:01.374Z,12.57
2019-04-04T13:40:31.886Z,12.90
2019-04-04T13:43:02.396Z,14.00
2019-04-04T13:45:32.893Z,14.63
2019-04-04T13:48:03.412Z,14.00
2019-04-04T13:50:33.922Z,15.10
2019-04-04T13:53:04.437Z,14.45
2019-04-04T13:55:34.945Z,13.62
2019-04-04T13:58:05.483Z,14.43
2019-04-04T14:00:35.980Z,14.07
2019-04-04T14:03:06.484Z,13.53
2019-04-04T14:05:37.179Z,15.05
2019-04-04T14:08:07.650Z,14.80
2019-04-04T14:10:38.155Z,15.80
2019-04-04T14:13:08.920Z,17.03
2019-04-04T14:15:39.433Z,16.93
2019-04-04T14:18:38.153Z,17.55
2019-04-04T14:21:03.695Z,16.80
2019-04-04T14:23:30.460Z,17.57
2019-04-04T14:26:00.839Z,19.30
2019-04-04T14:28:31.344Z,18.67
2019-04-04T14:31:01.885Z,19.95
2019-04-04T14:33:32.414Z,20.82
2019-04-04T14:36:02.884Z,20.33
2019-04-04T14:38:34.921Z,20.77
2019-04-04T14:41:11.223Z,20.88
2019-04-04T14:43:37.632Z,21.02
2019-04-04T14:46:08.136Z,20.20
2019-04-04T14:48:42.132Z,19.62
2019-04-04T14:51:10.866Z,20.60
2019-04-04T14:53:41.473Z,21.12
2019-04-04T14:56:11.979Z,21.52
2019-04-04T14:58:42.439Z,22.80
2019-04-04T15:01:12.979Z,21.23
2019-04-04T15:03:43.471Z,22.05
2019-04-04T15:06:13.993Z,22.70
2019-04-04T15:08:44.425Z,22.40
2019-04-04T15:11:23.881Z,21.60
2019-04-04T15:13:47.138Z,21.45
2019-04-04T15:16:19.550Z,20.30
2019-04-04T15:18:50.037Z,20.68
2019-04-04T15:21:20.591Z,18.90
2019-04-04T15:23:51.183Z,19.40
2019-04-04T15:26:21.743Z,18.00
2019-04-04T15:28:52.221Z,21.87
2019-04-04T15:31:22.786Z,21.37
2019-04-04T15:33:53.280Z,24.45
2019-04-04T15:36:23.797Z,23.90
2019-04-04T15:38:54.360Z,23.38
2019-04-04T15:41:36.300Z,23.43
2019-04-04T15:43:57.068Z,23.53
2019-04-04T15:46:27.702Z,24.65
2019-04-04T15:48:58.266Z,23.77
2019-04-04T15:51:28.779Z,22.22
2019-04-04T15:53:59.292Z,22.20
2019-04-04T15:56:29.768Z,21.17
2019-04-04T15:59:00.253Z,22.60
2019-04-04T16:01:30.800Z,20.68
2019-04-04T16:04:01.193Z,24.40
2019-04-04T16:06:31.667Z,24.30
2019-04-04T16:09:02.132Z,25.90
2019-04-04T16:11:35.401Z,24.12
2019-04-04T16:14:09.499Z,26.30
2019-04-04T16:16:40.101Z,27.48
2019-04-04T16:19:10.972Z,26.85
2019-04-04T16:21:41.436Z,27.45
2019-04-04T16:24:12.043Z,29.00
2019-04-04T16:26:42.551Z,26.35
2019-04-04T16:29:13.057Z,27.37
2019-04-04T16:31:43.562Z,27.90
2019-04-04T16:34:14.055Z,26.97
2019-04-04T16:36:44.465Z,27.77
2019-04-04T16:39:15.019Z,27.98
2019-04-04T16:41:45.500Z,27.35
2019-04-04T16:44:15.989Z,27.40
2019-04-04T16:46:46.546Z,27.58
2019-04-04T16:49:17.135Z,27.15
2019-04-04T16:51:47.682Z,25.40
2019-04-04T16:54:19.101Z,21.48
2019-04-04T16:56:49.790Z,21.50
2019-04-04T16:59:20.280Z,19.10
2019-04-04T17:01:50.872Z,19.30
2019-04-04T17:04:21.324Z,19.95
2019-04-04T17:06:54.555Z,18.60
2019-04-04T17:09:24.245Z,18.92
2019-04-04T17:11:54.776Z,18.17
2019-04-04T17:14:25.322Z,17.27
2019-04-04T17:16:55.964Z,16.80
2019-04-04T17:19:26.476Z,15.60
2019-04-04T17:21:57.227Z,14.75
2019-04-04T17:24:27.813Z,13.40
2019-04-04T17:26:58.292Z,12.60
2019-04-04T17:29:28.798Z,13.65
2019-04-04T17:31:59.509Z,13.15
2019-04-04T17:34:30.023Z,12.10
2019-04-04T17:37:00.541Z,13.28
2019-04-04T17:39:31.458Z,12.50
2019-04-04T17:42:01.932Z,12.65
2019-04-04T17:44:32.950Z,12.70
2019-04-04T17:47:03.719Z,12.05
2019-04-04T17:49:34.302Z,11.90
2019-04-04T17:52:04.785Z,11.83
2019-04-04T17:54:35.311Z,12.07
2019-04-04T17:57:06.385Z,12.37
2019-04-04T17:59:36.972Z,11.93
2019-04-04T18:02:07.515Z,11.80
2019-04-04T18:04:47.767Z,11.83
2019-04-04T18:07:10.228Z,12.60
2019-04-04T18:09:40.724Z,12.83
2019-04-04T18:12:11.201Z,13.30
2019-04-04T18:14:41.803Z,12.28
2019-04-04T18:17:12.342Z,13.18
2019-04-04T18:19:42.957Z,13.40
2019-04-04T18:22:13.437Z,13.35
2019-04-04T18:24:44.020Z,13.05
2019-04-04T18:27:14.510Z,14.27
2019-04-04T18:29:44.933Z,13.22
2019-04-04T18:32:15.505Z,13.58
2019-04-04T18:34:46.238Z,14.35
2019-04-04T18:37:17.180Z,14.03
2019-04-04T18:39:47.934Z,13.10
2019-04-04T18:42:18.416Z,13.78
2019-04-04T18:44:48.926Z,14.25
2019-04-04T18:47:19.492Z,13.03
2019-04-04T18:49:50.107Z,14.15
2019-04-04T18:52:20.595Z,13.20
2019-04-04T18:54:51.367Z,13.25
2019-04-04T18:57:22.063Z,12.00
2019-04-04T18:59:52.551Z,13.60
2019-04-04T19:02:23.173Z,14.30
2019-04-04T19:04:53.683Z,13.62
2019-04-04T19:07:24.162Z,14.70
2019-04-04T19:09:54.817Z,14.53
2019-04-04T19:12:25.377Z,14.55
2019-04-04T19:14:56.004Z,15.40
2019-04-04T19:17:26.630Z,13.85
2019-04-04T19:19:57.123Z,14.05
2019-04-04T19:22:27.660Z,15.13
2019-04-04T19:24:58.244Z,14.73
2019-04-04T19:27:28.722Z,14.95
2019-04-04T19:29:59.384Z,13.53
2019-04-04T19:32:29.927Z,15.03
2019-04-04T19:35:00.420Z,14.87
2019-04-04T19:37:30.939Z,15.10
2019-04-04T19:40:01.515Z,15.80
2019-04-04T19:42:32.019Z,15.20
2019-04-04T19:45:02.570Z,15.03
2019-04-04T19:47:33.120Z,15.45
2019-04-04T19:50:03.580Z,14.80
2019-04-04T19:52:34.069Z,15.43
2019-04-04T19:55:04.718Z,15.10
2019-04-04T19:57:35.180Z,16.02
2019-04-04T20:00:06.639Z,17.13
2019-04-04T20:02:37.320Z,16.90
2019-04-04T20:05:09.658Z,17.50
2019-04-04T20:07:40.120Z,17.95
2019-04-04T20:10:11.055Z,18.20
2019-04-04T20:12:41.533Z,20.08
2019-04-04T20:15:13.655Z,18.10
2019-04-04T20:17:44.186Z,18.60
2019-04-04T20:20:15.196Z,19.92
2019-04-04T20:22:45.692Z,19.62
2019-04-04T20:25:16.286Z,20.43
2019-04-04T20:27:54.637Z,20.87
2019-04-04T20:30:23.538Z,19.32
2019-04-04T20:32:54.041Z,22.87
2019-04-04T20:35:26.859Z,20.85
2019-04-04T20:37:56.959Z,21.52
2019-04-04T20:40:27.601Z,20.68
2019-04-04T20:42:58.287Z,21.73
2019-04-04T20:45:28.854Z,22.00
2019-04-04T20:47:59.525Z,22.07
2019-04-04T20:50:30.146Z,23.45
2019-04-04T20:53:00.846Z,23.00
2019-04-04T20:55:31.414Z,23.27
2019-04-04T20:58:01.926Z,24.70
2019-04-04T21:00:32.534Z,24.07
2019-04-04T21:03:03.086Z,24.82
2019-04-04T21:05:33.608Z,24.43
2019-04-04T21:08:04.206Z,25.15
2019-04-04T21:10:34.739Z,25.82
2019-04-04T21:13:05.266Z,25.25
2019-04-04T21:15:35.920Z,26.40
2019-04-04T21:18:06.473Z,26.80
2019-04-04T21:20:37.011Z,27.62
2019-04-04T21:23:07.619Z,28.00
2019-04-04T21:25:38.187Z,27.70
2019-04-04T21:28:09.653Z,28.45
2019-04-04T21:30:40.200Z,29.80
2019-04-04T21:33:10.643Z,30.55
2019-04-04T21:35:41.333Z,30.80
2019-04-04T21:38:11.814Z,32.13
2019-04-04T21:40:42.307Z,29.80
2019-04-04T21:43:12.904Z,31.15
2019-04-04T21:45:43.373Z,30.52
2019-04-04T21:48:13.858Z,30.27
2019-04-04T21:50:44.637Z,31.12
2019-04-04T21:53:15.127Z,32.30
2019-04-04T21:55:45.584Z,31.20
2019-04-04T21:58:16.095Z,32.10
2019-04-04T22:00:46.607Z,31.85
2019-04-04T22:03:17.103Z,32.67
2019-04-04T22:05:47.711Z,31.48
2019-04-04T22:08:18.234Z,34.03
2019-04-04T22:10:48.790Z,33.60
2019-04-04T22:13:19.382Z,33.08
2019-04-04T22:15:49.895Z,34.38
2019-04-04T22:18:20.378Z,33.35
2019-04-04T22:20:50.926Z,36.00
2019-04-04T22:23:21.451Z,38.23
2019-04-04T22:25:51.946Z,38.70
2019-04-04T22:28:22.513Z,41.08
2019-04-04T22:30:53.041Z,41.67
2019-04-04T22:33:23.582Z,40.75
2019-04-04T22:35:54.246Z,40.90
2019-04-04T22:38:24.734Z,44.83
2019-04-04T22:40:55.242Z,44.07
2019-04-04T22:43:25.921Z,43.50
2019-04-04T22:45:56.485Z,43.57
2019-04-04T22:48:27.019Z,45.38
2019-04-04T22:50:57.564Z,42.90
2019-04-04T22:53:28.174Z,44.15
2019-04-04T22:55:58.641Z,44.27
2019-04-04T22:58:29.254Z,44.67
2019-04-04T23:00:59.734Z,41.23
2019-04-04T23:03:30.271Z,41.73
2019-04-04T23:06:00.808Z,40.33
2019-04-04T23:08:31.331Z,39.63
2019-04-04T23:11:01.812Z,42.85
2019-04-04T23:13:32.359Z,39.48
2019-04-04T23:16:02.884Z,39.88
2019-04-04T23:18:33.345Z,41.65
2019-04-04T23:21:03.901Z,41.68
2019-04-04T23:23:34.465Z,42.10
2019-04-04T23:26:05.027Z,41.15
2019-04-04T23:28:35.593Z,41.55
2019-04-04T23:31:06.099Z,44.75
2019-04-04T23:33:36.559Z,43.23
2019-04-04T23:36:07.128Z,42.25
2019-04-04T23:38:37.617Z,42.78
2019-04-04T23:41:08.107Z,45.98
2019-04-04T23:43:38.646Z,44.33
2019-04-04T23:46:09.122Z,46.75
2019-04-04T23:48:39.688Z,46.98
2019-04-04T23:51:10.203Z,47.48
2019-04-04T23:53:40.727Z,49.80
2019-04-04T23:56:11.201Z,50.63
2019-04-04T23:58:41.763Z,51.73
